createdAt,value
2022-10-07T00:01:57.475Z,8.10
2022-10-07T00:04:28.237Z,11.30
2022-10-07T00:06:57.312Z,6.15
2022-10-07T00:09:26.437Z,9.88
2022-10-07T00:11:55.763Z,8.32
2022-10-07T00:14:24.871Z,7.72
2022-10-07T00:16:53.870Z,7.20
2022-10-07T00:19:23.400Z,6.65
2022-10-07T00:21:53.757Z,7.97
2022-10-07T00:24:23.156Z,5.07
2022-10-07T00:26:52.258Z,8.80
2022-10-07T00:29:25.043Z,5.63
2022-10-07T00:31:57.204Z,7.38
2022-10-07T00:34:27.546Z,10.57
2022-10-07T00:36:58.004Z,11.48
2022-10-07T00:39:27.075Z,4.90
2022-10-07T00:41:56.699Z,10.80
2022-10-07T00:44:44.214Z,12.23
2022-10-07T00:47:21.725Z,3.53
2022-10-07T00:49:55.520Z,6.30
2022-10-07T00:52:30.318Z,4.45
2022-10-07T00:55:02.306Z,8.18
2022-10-07T00:57:34.575Z,7.10
2022-10-07T01:00:05.324Z,7.35
2022-10-07T01:02:35.884Z,9.02
2022-10-07T01:05:09.368Z,12.73
2022-10-07T01:07:40.225Z,12.80
2022-10-07T01:10:12.661Z,12.82
2022-10-07T01:12:55.174Z,15.95
2022-10-07T01:15:34.077Z,15.93
2022-10-07T01:18:11.393Z,16.77
2022-10-07T01:20:46.843Z,15.43
2022-10-07T01:26:20.695Z,17.92
2022-10-07T01:28:55.552Z,17.60
2022-10-07T01:31:29.385Z,20.20
2022-10-07T01:34:01.779Z,25.20
2022-10-07T01:36:32.713Z,15.70
2022-10-07T01:39:06.661Z,22.80
2022-10-07T01:41:38.649Z,13.57
2022-10-07T01:44:10.410Z,8.23
2022-10-07T01:46:39.732Z,10.45
2022-10-07T01:49:10.330Z,10.63
2022-10-07T01:51:55.137Z,10.65
2022-10-07T01:54:34.605Z,7.72
2022-10-07T01:57:16.182Z,12.30
2022-10-07T02:00:06.756Z,9.35
2022-10-07T02:03:00.182Z,16.35
2022-10-07T02:05:40.147Z,13.23
2022-10-07T02:08:23.582Z,9.25
2022-10-07T02:11:16.068Z,9.18
2022-10-07T02:14:01.050Z,9.25
2022-10-07T02:19:12.184Z,7.40
2022-10-07T02:21:44.499Z,8.32
2022-10-07T02:24:16.807Z,9.02
2022-10-07T02:26:48.443Z,15.75
2022-10-07T02:29:21.901Z,8.13
2022-10-07T02:36:54.747Z,11.80
2022-10-07T02:39:24.426Z,4.50
2022-10-07T02:42:06.052Z,9.48
2022-10-07T02:44:41.721Z,8.80
2022-10-07T02:47:16.626Z,11.60
2022-10-07T02:49:50.392Z,19.05
2022-10-07T02:52:23.370Z,6.70
2022-10-07T02:54:59.750Z,11.93
2022-10-07T02:57:36.102Z,6.20
2022-10-07T03:00:11.134Z,6.05
2022-10-07T03:02:54.085Z,12.40
2022-10-07T03:05:27.623Z,8.27
2022-10-07T03:08:05.915Z,6.63
2022-10-07T03:10:36.008Z,11.30
2022-10-07T03:13:06.017Z,12.27
2022-10-07T03:15:42.487Z,12.07
2022-10-07T03:18:28.425Z,9.95
2022-10-07T03:21:09.831Z,17.98
2022-10-07T03:23:40.615Z,20.52
2022-10-07T03:26:09.996Z,35.22
2022-10-07T03:28:39.527Z,29.00
2022-10-07T03:31:11.927Z,19.38
2022-10-07T03:33:46.739Z,14.52
2022-10-07T03:36:16.109Z,17.05
2022-10-07T03:38:49.240Z,14.68
2022-10-07T03:41:19.136Z,12.80
2022-10-07T03:43:51.543Z,13.27
2022-10-07T03:46:24.177Z,14.90
2022-10-07T03:48:54.204Z,15.95
2022-10-07T03:51:23.889Z,11.73
2022-10-07T03:53:57.422Z,13.32
2022-10-07T03:56:28.965Z,12.55
2022-10-07T03:58:58.032Z,6.75
2022-10-07T04:01:31.692Z,7.63
2022-10-07T04:04:02.525Z,6.57
2022-10-07T04:06:36.338Z,6.53
2022-10-07T04:09:10.409Z,11.38
2022-10-07T04:11:41.755Z,6.13
2022-10-07T04:14:11.806Z,5.47
2022-10-07T04:16:43.261Z,6.93
2022-10-07T04:19:14.988Z,12.77
2022-10-07T04:21:45.233Z,11.70
2022-10-07T04:24:15.805Z,4.45
2022-10-07T04:26:44.906Z,8.75
2022-10-07T04:29:16.246Z,10.30
2022-10-07T04:31:45.558Z,8.85
2022-10-07T04:34:15.987Z,6.32
2022-10-07T04:36:45.595Z,11.65
2022-10-07T04:39:21.013Z,12.98
2022-10-07T04:41:56.083Z,11.30
2022-10-07T04:44:30.284Z,9.98
2022-10-07T04:47:07.169Z,8.27
2022-10-07T04:49:39.226Z,7.20
2022-10-07T04:52:10.822Z,12.82
2022-10-07T04:54:44.143Z,9.82
2022-10-07T04:57:13.809Z,11.00
2022-10-07T04:59:44.711Z,9.35
2022-10-07T05:02:17.901Z,12.77
2022-10-07T05:04:48.398Z,13.80
2022-10-07T05:07:18.467Z,11.60
2022-10-07T05:09:49.637Z,13.05
2022-10-07T05:12:18.896Z,9.88
2022-10-07T05:14:48.747Z,6.30
2022-10-07T05:17:19.249Z,6.65
2022-10-07T05:19:49.052Z,5.72
2022-10-07T05:22:18.149Z,10.27
2022-10-07T05:24:48.570Z,10.85
2022-10-07T05:27:18.008Z,6.32
2022-10-07T05:29:47.176Z,6.05
2022-10-07T05:32:16.426Z,9.73
2022-10-07T05:34:45.925Z,8.25
2022-10-07T05:37:15.239Z,9.43
2022-10-07T05:39:44.679Z,9.95
2022-10-07T05:42:20.890Z,9.73
2022-10-07T05:44:56.918Z,9.55
2022-10-07T05:47:27.159Z,7.88
2022-10-07T05:49:58.780Z,9.77
2022-10-07T05:52:29.196Z,7.65
2022-10-07T05:54:58.541Z,11.27
2022-10-07T05:57:30.249Z,11.38
2022-10-07T06:00:01.912Z,9.77
2022-10-07T06:02:32.792Z,9.75
2022-10-07T06:05:02.354Z,13.45
2022-10-07T06:07:32.373Z,15.57
2022-10-07T06:10:19.745Z,12.88
2022-10-07T06:13:09.483Z,13.77
2022-10-07T06:15:41.583Z,9.00
2022-10-07T06:18:11.262Z,10.80
2022-10-07T06:20:40.858Z,12.63
2022-10-07T06:23:10.075Z,6.93
2022-10-07T06:25:39.077Z,10.90
2022-10-07T06:28:09.941Z,9.30
2022-10-07T06:30:39.892Z,6.20
2022-10-07T06:33:09.309Z,10.30
2022-10-07T06:35:38.399Z,4.22
2022-10-07T06:38:07.938Z,7.50
2022-10-07T06:40:37.331Z,8.10
2022-10-07T06:43:08.305Z,9.70
2022-10-07T06:45:44.353Z,9.02
2022-10-07T06:48:16.378Z,9.10
2022-10-07T06:50:52.228Z,6.57
2022-10-07T06:53:23.065Z,10.85
2022-10-07T06:55:54.667Z,13.07
2022-10-07T06:58:26.087Z,9.85
2022-10-07T07:00:57.065Z,14.93
2022-10-07T07:03:26.810Z,7.50
2022-10-07T07:05:58.014Z,5.47
2022-10-07T07:11:25.991Z,8.43
2022-10-07T07:13:57.405Z,5.45
2022-10-07T07:16:28.443Z,6.97
2022-10-07T07:18:59.484Z,11.73
2022-10-07T07:21:29.082Z,5.38
2022-10-07T07:23:59.001Z,8.00
2022-10-07T07:26:28.862Z,7.20
2022-10-07T07:29:03.253Z,8.70
2022-10-07T07:31:38.865Z,4.40
2022-10-07T07:34:12.400Z,4.57
2022-10-07T07:36:46.081Z,7.70
2022-10-07T07:39:18.692Z,3.85
2022-10-07T07:41:54.011Z,6.63
2022-10-07T07:44:30.068Z,6.45
2022-10-07T07:47:03.001Z,5.90
2022-10-07T07:49:34.186Z,7.68
2022-10-07T07:52:04.334Z,12.40
2022-10-07T07:54:39.822Z,7.10
2022-10-07T07:57:09.577Z,6.25
2022-10-07T07:59:40.412Z,10.88
2022-10-07T08:02:13.313Z,8.10
2022-10-07T08:04:46.133Z,5.22
2022-10-07T08:07:15.908Z,7.28
2022-10-07T08:09:48.180Z,8.20
2022-10-07T08:12:17.678Z,7.05
2022-10-07T08:14:48.891Z,10.15
2022-10-07T08:17:19.324Z,10.52
2022-10-07T08:19:48.502Z,7.68
2022-10-07T08:22:17.984Z,3.08
2022-10-07T08:24:50.324Z,6.22
2022-10-07T08:27:22.002Z,5.32
2022-10-07T08:29:52.523Z,11.15
2022-10-07T08:32:23.222Z,6.05
2022-10-07T08:34:52.601Z,7.57
2022-10-07T08:37:22.147Z,8.20
2022-10-07T08:39:51.735Z,7.07
2022-10-07T08:42:28.858Z,5.70
2022-10-07T08:45:00.720Z,5.13
2022-10-07T08:47:34.810Z,8.02
2022-10-07T08:50:09.852Z,7.55
2022-10-07T08:52:51.140Z,9.30
2022-10-07T08:55:28.383Z,9.02
2022-10-07T08:58:16.354Z,7.93
2022-10-07T09:00:52.047Z,6.28
2022-10-07T09:05:57.169Z,9.75
2022-10-07T09:08:30.026Z,9.25
2022-10-07T09:11:15.942Z,10.95
2022-10-07T09:13:49.232Z,10.05
2022-10-07T09:16:26.273Z,3.88
2022-10-07T09:18:58.995Z,7.45
2022-10-07T09:21:37.042Z,3.83
2022-10-07T09:24:19.988Z,9.15
2022-10-07T09:26:50.317Z,10.52
2022-10-07T09:29:22.676Z,6.95
2022-10-07T09:31:54.098Z,10.93
2022-10-07T09:34:25.542Z,7.78
2022-10-07T09:37:26.680Z,9.77
2022-10-07T09:39:58.427Z,7.68
2022-10-07T09:42:35.281Z,6.63
2022-10-07T09:45:18.972Z,7.40
2022-10-07T09:47:53.714Z,8.27
2022-10-07T09:50:36.547Z,11.97
2022-10-07T09:53:07.359Z,5.28
2022-10-07T09:55:42.307Z,3.70
2022-10-07T09:58:20.341Z,7.45
2022-10-07T10:00:51.168Z,6.53
2022-10-07T10:03:23.012Z,7.03
2022-10-07T10:05:57.535Z,7.07
2022-10-07T10:08:30.103Z,5.30
2022-10-07T10:11:01.461Z,7.18
2022-10-07T10:13:34.294Z,5.68
2022-10-07T10:16:05.023Z,4.47
2022-10-07T10:18:56.063Z,5.43
2022-10-07T10:21:30.286Z,5.47
2022-10-07T10:24:01.626Z,5.35
2022-10-07T10:26:50.851Z,4.25
2022-10-07T10:29:38.462Z,5.43
2022-10-07T10:32:48.803Z,6.85
2022-10-07T10:35:25.022Z,6.53
2022-10-07T10:38:16.708Z,5.88
2022-10-07T10:40:57.588Z,4.28
2022-10-07T10:43:32.799Z,4.95
2022-10-07T10:46:28.835Z,5.90
2022-10-07T10:49:09.486Z,6.40
2022-10-07T10:51:53.348Z,4.80
2022-10-07T10:54:30.297Z,3.95
2022-10-07T10:57:05.451Z,6.15
2022-10-07T11:00:01.064Z,7.97
2022-10-07T11:03:15.361Z,3.83
2022-10-07T11:05:45.548Z,3.25
2022-10-07T11:08:24.140Z,4.80
2022-10-07T11:10:59.856Z,5.25
2022-10-07T11:13:33.774Z,6.07
2022-10-07T11:16:09.446Z,6.90
2022-10-07T11:18:45.903Z,4.57
2022-10-07T11:21:21.570Z,6.28
2022-10-07T11:23:58.416Z,4.85
2022-10-07T11:26:34.823Z,3.97
2022-10-07T11:29:16.185Z,5.00
2022-10-07T11:31:51.356Z,4.25
2022-10-07T11:34:24.195Z,2.38
2022-10-07T11:36:58.828Z,5.03
2022-10-07T11:39:30.018Z,3.00
2022-10-07T11:42:05.035Z,3.63
2022-10-07T11:44:42.139Z,3.30
2022-10-07T11:47:19.721Z,5.13
2022-10-07T11:49:57.991Z,2.17
2022-10-07T11:52:32.171Z,4.93
2022-10-07T11:55:08.796Z,3.63
2022-10-07T11:57:43.412Z,8.68
2022-10-07T12:00:26.261Z,4.47
2022-10-07T12:02:56.388Z,6.22
2022-10-07T12:05:56.054Z,2.75
2022-10-07T12:08:33.985Z,2.13
2022-10-07T12:11:43.023Z,6.85
2022-10-07T12:14:41.324Z,3.67
2022-10-07T12:17:30.461Z,4.97
2022-10-07T12:20:37.287Z,4.35
2022-10-07T12:23:40.928Z,4.40
2022-10-07T12:26:48.232Z,5.40
2022-10-07T12:29:51.038Z,3.60
2022-10-07T12:32:56.375Z,4.10
2022-10-07T12:35:43.564Z,6.13
2022-10-07T12:38:16.767Z,4.97
2022-10-07T12:40:51.201Z,4.55
2022-10-07T12:43:32.428Z,4.00
2022-10-07T12:46:06.494Z,4.15
2022-10-07T12:48:41.557Z,4.88
2022-10-07T12:51:19.464Z,5.57
2022-10-07T12:53:52.108Z,6.63
2022-10-07T12:56:26.570Z,3.80
2022-10-07T12:59:39.401Z,2.83
2022-10-07T13:02:44.380Z,4.00
2022-10-07T13:05:45.229Z,3.58
2022-10-07T13:08:52.463Z,4.80
2022-10-07T13:11:52.761Z,4.40
2022-10-07T13:14:28.790Z,3.40
2022-10-07T13:17:06.007Z,3.35
2022-10-07T13:19:47.104Z,4.80
2022-10-07T13:22:18.040Z,4.32
2022-10-07T13:24:51.105Z,4.03
2022-10-07T13:27:24.818Z,2.10
2022-10-07T13:29:54.480Z,3.28
2022-10-07T13:32:25.613Z,3.33
2022-10-07T13:34:57.527Z,4.57
2022-10-07T13:37:32.234Z,5.32
2022-10-07T13:40:20.771Z,4.35
2022-10-07T13:42:55.654Z,4.72
2022-10-07T13:45:25.507Z,7.13
2022-10-07T13:47:55.923Z,3.50
2022-10-07T13:50:29.209Z,3.47
2022-10-07T13:52:58.771Z,5.80
2022-10-07T13:55:32.197Z,4.43
2022-10-07T13:58:04.431Z,3.78
2022-10-07T14:00:35.448Z,4.88
2022-10-07T14:03:13.350Z,6.05
2022-10-07T14:05:52.003Z,7.40
2022-10-07T14:08:23.543Z,4.95
2022-10-07T14:10:57.673Z,4.05
2022-10-07T14:13:29.031Z,2.65
2022-10-07T14:16:00.242Z,8.48
2022-10-07T14:18:31.419Z,5.30
2022-10-07T14:21:16.667Z,4.97
2022-10-07T14:23:47.877Z,3.75
2022-10-07T14:26:18.135Z,4.50
2022-10-07T14:28:47.601Z,5.85
2022-10-07T14:31:38.603Z,6.10
2022-10-07T14:34:32.611Z,5.97
2022-10-07T14:37:05.408Z,5.50
2022-10-07T14:39:37.453Z,5.85
2022-10-07T14:42:11.781Z,6.32
2022-10-07T14:47:16.031Z,8.27
2022-10-07T14:49:45.435Z,8.93
2022-10-07T14:52:28.219Z,5.07
2022-10-07T14:54:59.671Z,9.23
2022-10-07T14:57:29.141Z,7.20
2022-10-07T14:59:58.423Z,4.13
2022-10-07T15:02:28.572Z,4.45
2022-10-07T15:04:57.588Z,5.43
2022-10-07T15:07:28.096Z,5.90
2022-10-07T15:09:57.347Z,4.18
2022-10-07T15:12:27.966Z,3.92
2022-10-07T15:14:56.967Z,2.75
2022-10-07T15:17:26.180Z,3.78
2022-10-07T15:19:55.381Z,6.32
2022-10-07T15:22:24.721Z,4.50
2022-10-07T15:24:55.375Z,2.88
2022-10-07T15:27:24.851Z,7.60
2022-10-07T15:29:55.401Z,4.72
2022-10-07T15:32:25.321Z,5.88
2022-10-07T15:34:55.238Z,3.22
2022-10-07T15:37:25.151Z,4.15
2022-10-07T15:39:55.775Z,3.60
2022-10-07T15:42:26.311Z,3.55
2022-10-07T15:44:55.686Z,9.80
2022-10-07T15:47:24.847Z,6.13
2022-10-07T15:49:54.099Z,9.95
2022-10-07T15:52:23.111Z,3.15
2022-10-07T15:54:52.403Z,4.00
2022-10-07T15:57:24.396Z,17.38
2022-10-07T15:59:54.861Z,3.70
2022-10-07T16:02:24.867Z,9.52
2022-10-07T16:04:54.199Z,4.15
2022-10-07T16:07:24.043Z,5.25
2022-10-07T16:09:53.020Z,5.20
2022-10-07T16:12:23.630Z,4.03
2022-10-07T16:14:53.137Z,6.03
2022-10-07T16:17:22.320Z,4.60
2022-10-07T16:19:51.582Z,4.43
2022-10-07T16:22:20.738Z,6.22
2022-10-07T16:24:50.197Z,10.63
2022-10-07T16:27:19.402Z,3.97
2022-10-07T16:30:07.661Z,6.15
2022-10-07T16:32:36.992Z,6.18
2022-10-07T16:35:06.694Z,11.75
2022-10-07T16:37:35.938Z,6.38
2022-10-07T16:40:05.269Z,7.10
2022-10-07T16:42:34.256Z,9.98
2022-10-07T16:45:05.891Z,8.55
2022-10-07T16:47:34.995Z,16.77
2022-10-07T16:50:07.586Z,11.27
2022-10-07T16:55:10.041Z,15.88
2022-10-07T16:57:39.015Z,21.15
2022-10-07T17:00:11.555Z,25.15
2022-10-07T17:02:40.588Z,23.65
2022-10-07T17:05:11.176Z,25.65
2022-10-07T17:07:40.160Z,26.40
2022-10-07T17:10:10.667Z,21.73
2022-10-07T17:12:39.638Z,28.77
2022-10-07T17:15:10.228Z,30.50
2022-10-07T17:17:39.524Z,26.25
2022-10-07T17:20:10.226Z,28.33
2022-10-07T17:22:39.256Z,22.42
2022-10-07T17:25:09.148Z,19.55
2022-10-07T17:27:38.195Z,25.42
2022-10-07T17:30:10.430Z,22.73
2022-10-07T17:32:39.752Z,27.30
2022-10-07T17:35:09.761Z,21.75
2022-10-07T17:37:38.892Z,24.25
2022-10-07T17:40:08.913Z,23.90
2022-10-07T17:42:37.916Z,45.13
2022-10-07T17:45:10.482Z,44.85
2022-10-07T17:47:39.934Z,32.92
2022-10-07T17:50:09.750Z,34.30
2022-10-07T17:52:39.425Z,34.90
2022-10-07T17:55:12.668Z,37.22
2022-10-07T17:57:42.084Z,43.72
2022-10-07T18:00:13.502Z,45.03
2022-10-07T18:02:42.810Z,43.00
2022-10-07T18:05:12.055Z,42.15
2022-10-07T18:07:42.665Z,40.70
2022-10-07T18:10:11.847Z,45.25
2022-10-07T18:12:58.674Z,40.45
2022-10-07T18:15:29.402Z,50.20
2022-10-07T18:17:58.480Z,52.15
2022-10-07T18:20:28.558Z,45.00
2022-10-07T18:22:58.764Z,39.15
2022-10-07T18:25:28.102Z,45.22
2022-10-07T18:27:57.139Z,40.80
2022-10-07T18:30:26.556Z,36.60
2022-10-07T18:32:57.050Z,44.53
2022-10-07T18:35:26.126Z,42.65
2022-10-07T18:37:55.435Z,33.92
2022-10-07T18:40:24.458Z,21.42
2022-10-07T18:42:53.694Z,29.67
2022-10-07T18:45:23.379Z,33.75
2022-10-07T18:47:52.729Z,23.77
2022-10-07T18:50:24.006Z,23.00
2022-10-07T18:52:53.266Z,23.42
2022-10-07T18:55:22.517Z,17.48
2022-10-07T18:57:51.829Z,20.58
2022-10-07T19:00:20.891Z,14.93
2022-10-07T19:02:51.587Z,17.90
2022-10-07T19:05:22.286Z,15.48
2022-10-07T19:07:51.559Z,20.02
2022-10-07T19:10:20.557Z,13.65
2022-10-07T19:13:07.992Z,16.45
2022-10-07T19:15:38.264Z,13.63
2022-10-07T19:18:07.793Z,13.73
2022-10-07T19:20:42.649Z,12.88
2022-10-07T19:23:11.852Z,19.98
2022-10-07T19:25:48.918Z,18.38
2022-10-07T19:28:21.484Z,18.00
2022-10-07T19:30:50.767Z,16.90
2022-10-07T19:33:20.288Z,19.77
2022-10-07T19:35:55.579Z,20.10
2022-10-07T19:38:25.013Z,19.35
2022-10-07T19:40:57.275Z,14.40
2022-10-07T19:43:26.637Z,15.98
2022-10-07T19:46:01.454Z,25.80
2022-10-07T19:48:32.565Z,20.95
2022-10-07T19:51:04.884Z,24.00
2022-10-07T19:53:35.781Z,18.08
2022-10-07T19:56:06.660Z,21.17
2022-10-07T19:58:36.151Z,21.40
2022-10-07T20:01:06.919Z,19.92
2022-10-07T20:03:36.606Z,25.75
2022-10-07T20:06:09.125Z,22.25
2022-10-07T20:08:39.840Z,22.42
2022-10-07T20:11:10.383Z,27.30
2022-10-07T20:13:40.740Z,25.25
2022-10-07T20:16:12.827Z,22.75
2022-10-07T20:18:42.301Z,24.10
2022-10-07T20:21:17.180Z,24.08
2022-10-07T20:23:48.285Z,29.17
2022-10-07T20:26:19.837Z,24.52
2022-10-07T20:28:51.886Z,20.80
2022-10-07T20:31:23.877Z,28.45
2022-10-07T20:33:55.185Z,25.55
2022-10-07T20:36:27.280Z,28.77
2022-10-07T20:39:14.508Z,23.92
2022-10-07T20:42:07.482Z,23.30
2022-10-07T20:44:37.680Z,22.50
2022-10-07T20:47:07.791Z,26.95
2022-10-07T20:49:38.812Z,32.42
2022-10-07T20:52:13.237Z,27.95
2022-10-07T20:54:42.696Z,34.80
2022-10-07T20:57:14.104Z,30.92
2022-10-07T20:59:43.876Z,25.20
2022-10-07T21:02:13.954Z,26.17
2022-10-07T21:04:43.217Z,19.00
2022-10-07T21:07:14.466Z,26.95
2022-10-07T21:09:43.828Z,24.65
2022-10-07T21:12:15.777Z,23.73
2022-10-07T21:14:47.934Z,26.88
2022-10-07T21:17:17.787Z,22.67
2022-10-07T21:19:46.985Z,22.58
2022-10-07T21:22:17.808Z,23.73
2022-10-07T21:24:47.141Z,23.63
2022-10-07T21:27:16.185Z,25.70
2022-10-07T21:29:48.604Z,25.35
2022-10-07T21:32:18.769Z,25.00
2022-10-07T21:34:48.051Z,23.10
2022-10-07T21:37:18.565Z,27.08
2022-10-07T21:39:47.788Z,24.40
2022-10-07T21:42:17.147Z,23.13
2022-10-07T21:44:47.362Z,26.23
2022-10-07T21:47:16.614Z,25.90
2022-10-07T21:49:45.709Z,23.77
2022-10-07T21:52:15.129Z,30.38
2022-10-07T21:54:45.720Z,28.40
2022-10-07T21:57:14.921Z,29.25
2022-10-07T21:59:43.988Z,30.55
2022-10-07T22:02:13.909Z,26.65
2022-10-07T22:04:43.093Z,28.27
2022-10-07T22:07:30.661Z,25.85
2022-10-07T22:10:01.389Z,32.88
2022-10-07T22:12:30.491Z,36.05
2022-10-07T22:14:59.763Z,27.05
2022-10-07T22:17:28.772Z,27.08
2022-10-07T22:19:58.840Z,24.48
2022-10-07T22:22:28.550Z,25.08
2022-10-07T22:24:57.539Z,20.02
2022-10-07T22:27:28.264Z,23.27
2022-10-07T22:29:58.711Z,29.50
2022-10-07T22:32:28.281Z,29.05
2022-10-07T22:35:14.719Z,27.17
2022-10-07T22:37:45.009Z,20.92
2022-10-07T22:40:14.011Z,25.85
2022-10-07T22:42:48.017Z,24.65
2022-10-07T22:45:19.262Z,26.25
2022-10-07T22:47:51.191Z,25.65
2022-10-07T22:50:20.527Z,32.50
2022-10-07T22:52:50.086Z,23.17
2022-10-07T22:55:21.480Z,38.00
2022-10-07T22:57:53.220Z,36.55
2022-10-07T23:00:22.422Z,53.22
2022-10-07T23:02:54.247Z,45.63
2022-10-07T23:05:23.579Z,41.17
2022-10-07T23:07:52.845Z,37.10
2022-10-07T23:10:23.371Z,41.53
2022-10-07T23:12:53.899Z,36.03
2022-10-07T23:15:23.114Z,35.22
2022-10-07T23:17:52.279Z,40.60
2022-10-07T23:20:25.301Z,30.80
2022-10-07T23:22:54.497Z,30.15
2022-10-07T23:25:26.354Z,32.97
2022-10-07T23:27:56.992Z,33.63
2022-10-07T23:30:26.063Z,35.88
2022-10-07T23:32:56.239Z,32.97
2022-10-07T23:35:25.591Z,27.48
2022-10-07T23:37:56.382Z,29.52
2022-10-07T23:40:25.497Z,28.85
2022-10-07T23:42:56.065Z,34.53
2022-10-07T23:45:25.084Z,32.35
2022-10-07T23:47:54.189Z,31.00
2022-10-07T23:50:23.518Z,30.42
2022-10-07T23:52:52.621Z,32.92
2022-10-07T23:55:21.951Z,36.08
2022-10-07T23:57:51.187Z,33.17
